KPHL/PHL METAR and TAF weather

Enter ICAO airport designator
Station Type Date Time Source
KPHL METAR 2019/08/22 03:54 UTC NOAA

KPHL 220354Z 12005KT 10SM FEW015 FEW050 FEW070 SCT250 24/23 A2989 RMK AO2 TSE06 SLP120 T02440233 $


Station Type Date Time Source
KPHL Decoded METAR 2019/08/22 03:54 UTC NOAA

Station name not available
Aug 21, 2019 - 11:54 PM EDT / 2019.08.22 0354 UTC
Wind: from the ESE (120 degrees) at 6 MPH (5 KT):0
Visibility: 10 mile(s):0
Sky conditions: partly cloudy
Temperature: 75.9 F (24.4 C)
Dew Point: 73.9 F (23.3 C)
Relative Humidity: 93%
Pressure (altimeter): 29.89 in. Hg (1012 hPa)
ob: KPHL 220354Z 12005KT 10SM FEW015 FEW050 FEW070 SCT250 24/23 A2989 RMK AO2 TSE06 SLP120 T02440233
cycle: 4

Station Type Date Time Source
KPHL TAF 2019/08/22 03:30 UTC NOAA

TAF
AMD KPHL 220324Z 2203/2306 VRB06KT P6SM SCT020 BKN050
FM220700 27005KT 6SM BR SCT250
FM221400 28007KT P6SM BKN035
FM222000 25009KT P6SM -SHRA BKN035
FM230200 21008KT 6SM +SHRA BKN010

Example: see airport list